Bookmark and Share
Track history (hours):
 

Kasagimaru

Last reported at 2014-Apr-24 15:18 UTC. Time now 2014-Apr-24 19:48 UTC.
Position N 34°33' E 135°27'.

Length 42 m; draft 3.5 m.

Type: Tug. MMSI: 431300268.

NotesDate/timePositionNaut miles runAvg speedWind from/ knotsBaromVisibWave heightAir tempDewpointWater temp
2014-Apr-24 15:18N 34°33' E 135°27'0 0.0
2014-Apr-24 14:33N 34°33' E 135°27'0 0.0
2014-Apr-24 13:32N 34°33' E 135°27'0 0.0
2014-Apr-24 12:11N 34°33' E 135°27'0 0.0
2014-Apr-24 11:06N 34°33' E 135°27'0 0.0
2014-Apr-24 10:29N 34°33' E 135°27'7 7.1
2014-Apr-24 09:33N 34°31' E 135°19'2110.3
2014-Apr-24 07:29N 34°17' E 134°59'1313.0
2014-Apr-24 06:29N 34°30' E 135°03'7 7.7
2014-Apr-24 05:33N 34°37' E 135°01'17 0.7
2014-Apr-23 05:14N 34°41' E 134°42'810.7
2014-Apr-23 04:31N 34°34' E 134°44'1414.3
2014-Apr-23 03:33N 34°38' E 135°01'7 7.5
2014-Apr-23 02:33N 34°34' E 135°09'9 8.6
2014-Apr-23 01:33N 34°26' E 135°05'11 9.9
2014-Apr-23 00:27N 34°16' E 134°59'7 7.3
2014-Apr-22 23:33N 34°11' E 135°03'6 5.6
2014-Apr-22 22:33N 34°13' E 135°09'0 0.0
2014-Apr-22 21:33N 34°13' E 135°09'0 0.0
2014-Apr-22 20:33N 34°13' E 135°09'0 0.0
2014-Apr-22 19:33N 34°13' E 135°09'0 0.0
2014-Apr-22 18:33N 34°13' E 135°09'0 0.0
2014-Apr-22 17:33N 34°13' E 135°09'0 0.0
2014-Apr-22 16:33N 34°13' E 135°09'0 0.0
2014-Apr-22 15:33N 34°13' E 135°09'0 0.0
2014-Apr-22 14:33N 34°13' E 135°09'0 0.0
2014-Apr-22 13:33N 34°13' E 135°09'0 0.0
2014-Apr-22 12:33N 34°13' E 135°09'0 0.0
2014-Apr-22 11:33N 34°13' E 135°09'0 0.0
2014-Apr-22 10:33N 34°13' E 135°09'0 0.0
2014-Apr-22 09:33N 34°13' E 135°09'4 3.6
2014-Apr-22 08:33N 34°13' E 135°05'1211.1
2014-Apr-22 07:27N 34°25' E 135°02'1010.8
2014-Apr-22 06:33N 34°34' E 135°06'21 0.8
2014-Apr-21 04:20N 34°41' E 134°41'12 6.3
2014-Apr-21 02:29N 34°37' E 134°54'1010.7
2014-Apr-21 01:33N 34°36' E 135°06'1110.6
2014-Apr-21 00:33N 34°34' E 135°19'6 6.3
2014-Apr-20 23:33N 34°33' E 135°27'0 0.0
2014-Apr-20 22:32N 34°33' E 135°27'0 0.0
2014-Apr-20 21:21N 34°33' E 135°27'0 0.0
2014-Apr-20 20:33N 34°33' E 135°27'0 0.0
2014-Apr-20 19:26N 34°33' E 135°27'0 0.0
2014-Apr-20 18:27N 34°33' E 135°27'0 0.0
2014-Apr-20 17:32N 34°33' E 135°27'0 0.0
2014-Apr-20 16:29N 34°33' E 135°27'0 0.0
2014-Apr-20 15:15N 34°33' E 135°27'0 0.0
2014-Apr-20 13:18N 34°33' E 135°27'0 0.0
2014-Apr-20 12:31N 34°33' E 135°27'0 0.0
2014-Apr-20 11:33N 34°33' E 135°27'0 0.0
2014-Apr-20 10:33N 34°33' E 135°27'0 0.0
2014-Apr-20 09:33N 34°33' E 135°27'0 0.0
2014-Apr-20 08:33N 34°33' E 135°27'0 0.0
2014-Apr-20 07:25N 34°33' E 135°27'0 0.0
2014-Apr-20 04:32N 34°33' E 135°27'1 0.4
2014-Apr-20 02:32N 34°33' E 135°26'5 5.5
2014-Apr-20 01:33N 34°29' E 135°22'2 2.4
2014-Apr-20 00:33N 34°31' E 135°21'5 4.6
2014-Apr-19 23:26N 34°33' E 135°27'0 0.0
2014-Apr-19 22:31N 34°33' E 135°27'0 0.0
2014-Apr-19 21:33N 34°33' E 135°27'0 0.0
2014-Apr-19 20:33N 34°33' E 135°27'0 0.0
2014-Apr-19 19:31N 34°33' E 135°27'0 0.0
2014-Apr-19 18:33N 34°33' E 135°27'0 0.0
2014-Apr-19 17:24N 34°33' E 135°27'0 0.0
2014-Apr-19 16:30N 34°33' E 135°27'0 0.0
2014-Apr-19 15:33N 34°33' E 135°27'0 0.0
2014-Apr-19 14:32N 34°33' E 135°27'0 0.0
2014-Apr-19 13:32N 34°33' E 135°27'0 0.0
2014-Apr-19 12:32N 34°33' E 135°27'0 0.0
2014-Apr-19 11:33N 34°33' E 135°27'0 0.0
2014-Apr-19 10:26N 34°33' E 135°27'0 0.0
2014-Apr-19 09:33N 34°33' E 135°27'0 0.0
2014-Apr-19 08:33N 34°33' E 135°27'0 0.0
2014-Apr-19 07:33N 34°33' E 135°27'0 0.0
2014-Apr-19 06:24N 34°33' E 135°27'0 0.0
2014-Apr-19 05:32N 34°33' E 135°27'0 0.0
2014-Apr-19 04:29N 34°33' E 135°27'0 0.0
2014-Apr-19 03:33N 34°33' E 135°27'4 3.6
2014-Apr-19 02:21N 34°34' E 135°21'911.7
2014-Apr-19 01:33N 34°35' E 135°10'1010.2
2014-Apr-19 00:33N 34°37' E 134°58'14 3.5
2014-Apr-18 20:30N 34°41' E 134°42'8 8.4
2014-Apr-18 19:33N 34°38' E 134°51'9 9.4
2014-Apr-18 18:34N 34°37' E 135°02'1110.7
2014-Apr-18 17:34N 34°34' E 135°14'1010.0
2014-Apr-18 16:33N 34°33' E 135°27'0 0.0
2014-Apr-18 15:30N 34°33' E 135°27'0 0.0
2014-Apr-18 14:33N 34°33' E 135°27'0 0.0
2014-Apr-18 13:29N 34°33' E 135°27'0 0.0
2014-Apr-18 11:16N 34°33' E 135°27'0 0.0
2014-Apr-18 10:34N 34°33' E 135°27'0 0.0
2014-Apr-18 09:34N 34°33' E 135°27'0 0.1
2014-Apr-18 08:34N 34°33' E 135°27'3 0.8
2014-Apr-18 04:34N 34°31' E 135°24'10 9.5
2014-Apr-18 03:33N 34°27' E 135°13'1211.7
2014-Apr-18 02:34N 34°20' E 135°03'4 4.3
2014-Apr-18 01:33N 34°24' E 135°02'1413.7
2014-Apr-18 00:33N 34°32' E 135°16'7 6.8
2014-Apr-17 23:33N 34°33' E 135°24'2 1.7
2014-Apr-17 22:33N 34°33' E 135°26'0 0.4
2014-Apr-17 21:30N 34°33' E 135°27'0 0.0
2014-Apr-17 20:34N 34°33' E 135°27'0 0.0
2014-Apr-17 19:33N 34°33' E 135°27'0 0.0
2014-Apr-17 18:32N 34°33' E 135°27'0 0.0
2014-Apr-17 17:06N 34°33' E 135°27'0 0.0
2014-Apr-17 16:34N 34°33' E 135°27'0 0.0
2014-Apr-17 15:34N 34°33' E 135°27'0 0.0
2014-Apr-17 14:33N 34°33' E 135°27'0 0.0
2014-Apr-17 13:31N 34°33' E 135°27'0 0.0
2014-Apr-17 12:21N 34°33' E 135°27'0 0.0
2014-Apr-17 10:22N 34°33' E 135°27'0 0.0
2014-Apr-17 09:33N 34°33' E 135°27'0 0.0
2014-Apr-17 08:32N 34°33' E 135°27'0 0.0
2014-Apr-17 07:34N 34°33' E 135°27'0 0.0
2014-Apr-17 06:33N 34°33' E 135°27'0 0.0
2014-Apr-17 05:25N 34°33' E 135°27'0 0.0
2014-Apr-17 04:33N 34°33' E 135°27'0 0.0
2014-Apr-17 03:30N 34°33' E 135°27'2 2.1
2014-Apr-17 02:33N 34°33' E 135°24'6 5.5
2014-Apr-17 01:33N 34°33' E 135°18'1111.0
2014-Apr-17 00:33N 34°25' E 135°08'1312.9
2014-Apr-16 23:33N 34°14' E 134°59'6 5.5
2014-Apr-16 22:29N 34°19' E 135°04'1212.4
2014-Apr-16 21:33N 34°25' E 135°16'1212.1
2014-Apr-16 20:33N 34°33' E 135°26'0 0.3
2014-Apr-16 19:19N 34°33' E 135°27'0 0.0
2014-Apr-16 17:33N 34°33' E 135°27'0 0.0
2014-Apr-16 16:27N 34°33' E 135°27'0 0.0
2014-Apr-16 14:20N 34°33' E 135°27'0 0.0
2014-Apr-16 13:33N 34°33' E 135°27'0 0.0
2014-Apr-16 11:32N 34°33' E 135°27'0 0.0
2014-Apr-16 10:11N 34°33' E 135°27'0 0.0
2014-Apr-16 09:33N 34°33' E 135°27'0 0.0
2014-Apr-16 08:32N 34°33' E 135°27'1 0.8
2014-Apr-16 07:33N 34°33' E 135°26'1 0.8
2014-Apr-16 06:31N 34°33' E 135°25'5 5.0
2014-Apr-16 05:33N 34°34' E 135°19'4 4.4
2014-Apr-16 04:32N 34°31' E 135°24'0 0.1
2014-Apr-15 23:04N 34°31' E 135°24'1 1.3
2014-Apr-15 22:33N 34°31' E 135°23'2 1.9
2014-Apr-15 21:33N 34°33' E 135°23'3 1.4
2014-Apr-15 19:06N 34°33' E 135°27'0 0.0
2014-Apr-15 15:12N 34°33' E 135°27'0 0.0
2014-Apr-15 12:30N 34°33' E 135°27'0 0.0
2014-Apr-15 11:34N 34°33' E 135°27'0 0.0
2014-Apr-15 10:30N 34°33' E 135°27'0 0.0
2014-Apr-15 09:33N 34°33' E 135°27'0 0.0
2014-Apr-15 08:33N 34°33' E 135°27'0 0.0
2014-Apr-15 07:34N 34°33' E 135°27'0 0.0
2014-Apr-15 06:34N 34°33' E 135°27'0 0.0
2014-Apr-15 05:34N 34°33' E 135°27'0 0.0
2014-Apr-15 03:33N 34°33' E 135°27'0 0.0
2014-Apr-15 02:34N 34°33' E 135°27'0 0.0
2014-Apr-15 01:33N 34°33' E 135°27'0 0.2
2014-Apr-15 00:34N 34°33' E 135°27'1 0.7
2014-Apr-14 23:34N 34°33' E 135°26'5 4.4
2014-Apr-14 22:31N 34°34' E 135°20'  

Dump ship's entire track history

sailing weather and tide predictions

Kasagimaru — JJ3905 — position and weather